sensor_id;sensor_type;location;lat;lon;timestamp;P1;durP1;ratioP1;P2;durP2;ratioP2
6983;SDS011;3532;51.118;7.210;2023-11-18T00:01:32;67.60;;;22.70;;
6983;SDS011;3532;51.118;7.210;2023-11-18T00:03:58;41.35;;;18.83;;
6983;SDS011;3532;51.118;7.210;2023-11-18T00:06:23;62.30;;;22.53;;
6983;SDS011;3532;51.118;7.210;2023-11-18T00:08:48;116.63;;;27.03;;
6983;SDS011;3532;51.118;7.210;2023-11-18T00:11:14;64.43;;;21.27;;
6983;SDS011;3532;51.118;7.210;2023-11-18T00:13:40;73.30;;;23.40;;
6983;SDS011;3532;51.118;7.210;2023-11-18T00:16:07;75.25;;;23.85;;
6983;SDS011;3532;51.118;7.210;2023-11-18T00:18:37;55.73;;;19.60;;
6983;SDS011;3532;51.118;7.210;2023-11-18T00:21:03;41.42;;;20.45;;
6983;SDS011;3532;51.118;7.210;2023-11-18T00:23:29;62.83;;;21.63;;
6983;SDS011;3532;51.118;7.210;2023-11-18T00:25:55;60.00;;;23.10;;
6983;SDS011;3532;51.118;7.210;2023-11-18T00:28:21;53.50;;;20.27;;
6983;SDS011;3532;51.118;7.210;2023-11-18T00:30:47;31.07;;;18.10;;
6983;SDS011;3532;51.118;7.210;2023-11-18T00:33:12;47.27;;;20.17;;
6983;SDS011;3532;51.118;7.210;2023-11-18T00:35:38;47.40;;;20.30;;
6983;SDS011;3532;51.118;7.210;2023-11-18T00:38:03;36.37;;;18.83;;
6983;SDS011;3532;51.118;7.210;2023-11-18T00:40:28;36.43;;;17.93;;
6983;SDS011;3532;51.118;7.210;2023-11-18T00:42:56;41.53;;;19.80;;
6983;SDS011;3532;51.118;7.210;2023-11-18T00:45:22;49.20;;;20.30;;
6983;SDS011;3532;51.118;7.210;2023-11-18T00:47:47;45.70;;;21.57;;
6983;SDS011;3532;51.118;7.210;2023-11-18T00:50:13;36.37;;;18.00;;
6983;SDS011;3532;51.118;7.210;2023-11-18T00:52:39;33.37;;;17.80;;
6983;SDS011;3532;51.118;7.210;2023-11-18T00:55:06;45.50;;;19.37;;
6983;SDS011;3532;51.118;7.210;2023-11-18T00:57:33;46.60;;;20.20;;
6983;SDS011;3532;51.118;7.210;2023-11-18T00:59:58;44.17;;;20.73;;
6983;SDS011;3532;51.118;7.210;2023-11-18T01:02:23;55.77;;;20.63;;
6983;SDS011;3532;51.118;7.210;2023-11-18T01:04:49;49.57;;;20.70;;
6983;SDS011;3532;51.118;7.210;2023-11-18T01:07:15;47.85;;;17.30;;
6983;SDS011;3532;51.118;7.210;2023-11-18T01:09:40;107.57;;;24.97;;
6983;SDS011;3532;51.118;7.210;2023-11-18T01:12:06;74.27;;;20.83;;
6983;SDS011;3532;51.118;7.210;2023-11-18T01:14:35;51.97;;;17.70;;
6983;SDS011;3532;51.118;7.210;2023-11-18T01:17:02;66.40;;;21.07;;
6983;SDS011;3532;51.118;7.210;2023-11-18T01:19:28;44.33;;;18.10;;
6983;SDS011;3532;51.118;7.210;2023-11-18T01:21:53;62.43;;;19.23;;
6983;SDS011;3532;51.118;7.210;2023-11-18T01:24:18;83.73;;;24.00;;
6983;SDS011;3532;51.118;7.210;2023-11-18T01:26:44;40.67;;;19.13;;
6983;SDS011;3532;51.118;7.210;2023-11-18T01:29:10;50.33;;;19.23;;
6983;SDS011;3532;51.118;7.210;2023-11-18T01:31:35;57.20;;;20.57;;
6983;SDS011;3532;51.118;7.210;2023-11-18T01:34:01;90.67;;;24.07;;
6983;SDS011;3532;51.118;7.210;2023-11-18T01:36:26;63.77;;;19.13;;
6983;SDS011;3532;51.118;7.210;2023-11-18T01:38:51;67.73;;;20.57;;
6983;SDS011;3532;51.118;7.210;2023-11-18T01:41:19;69.03;;;19.63;;
6983;SDS011;3532;51.118;7.210;2023-11-18T01:43:45;59.00;;;21.60;;
6983;SDS011;3532;51.118;7.210;2023-11-18T01:46:11;44.00;;;19.30;;
6983;SDS011;3532;51.118;7.210;2023-11-18T01:48:38;58.33;;;22.30;;
6983;SDS011;3532;51.118;7.210;2023-11-18T01:51:03;49.77;;;20.37;;
6983;SDS011;3532;51.118;7.210;2023-11-18T01:53:30;65.53;;;20.40;;
6983;SDS011;3532;51.118;7.210;2023-11-18T01:55:56;70.10;;;21.93;;
6983;SDS011;3532;51.118;7.210;2023-11-18T01:58:21;73.63;;;22.77;;
6983;SDS011;3532;51.118;7.210;2023-11-18T02:00:48;42.57;;;20.97;;
6983;SDS011;3532;51.118;7.210;2023-11-18T02:03:16;60.27;;;20.57;;
6983;SDS011;3532;51.118;7.210;2023-11-18T02:05:42;37.28;;;19.92;;
6983;SDS011;3532;51.118;7.210;2023-11-18T02:08:08;69.47;;;22.30;;
6983;SDS011;3532;51.118;7.210;2023-11-18T02:10:34;42.90;;;21.80;;
6983;SDS011;3532;51.118;7.210;2023-11-18T02:13:06;52.10;;;21.90;;
6983;SDS011;3532;51.118;7.210;2023-11-18T02:15:37;48.17;;;20.97;;
6983;SDS011;3532;51.118;7.210;2023-11-18T02:18:03;52.10;;;20.53;;
6983;SDS011;3532;51.118;7.210;2023-11-18T02:20:31;44.40;;;20.93;;
6983;SDS011;3532;51.118;7.210;2023-11-18T02:22:57;38.57;;;19.07;;
6983;SDS011;3532;51.118;7.210;2023-11-18T02:25:23;39.30;;;21.93;;
6983;SDS011;3532;51.118;7.210;2023-11-18T02:27:49;47.20;;;21.97;;
6983;SDS011;3532;51.118;7.210;2023-11-18T02:30:14;41.23;;;20.93;;
6983;SDS011;3532;51.118;7.210;2023-11-18T02:32:51;45.72;;;20.77;;
6983;SDS011;3532;51.118;7.210;2023-11-18T02:35:37;49.03;;;21.17;;
6983;SDS011;3532;51.118;7.210;2023-11-18T02:38:06;44.90;;;21.27;;
6983;SDS011;3532;51.118;7.210;2023-11-18T02:40:39;48.83;;;24.73;;
6983;SDS011;3532;51.118;7.210;2023-11-18T02:43:08;47.13;;;23.35;;
6983;SDS011;3532;51.118;7.210;2023-11-18T02:45:34;42.17;;;22.15;;
6983;SDS011;3532;51.118;7.210;2023-11-18T02:48:01;44.87;;;22.37;;
6983;SDS011;3532;51.118;7.210;2023-11-18T02:50:27;41.77;;;21.10;;
6983;SDS011;3532;51.118;7.210;2023-11-18T02:52:53;40.33;;;21.07;;
6983;SDS011;3532;51.118;7.210;2023-11-18T02:55:18;44.60;;;22.20;;
6983;SDS011;3532;51.118;7.210;2023-11-18T02:57:46;38.37;;;20.13;;
6983;SDS011;3532;51.118;7.210;2023-11-18T03:00:12;35.97;;;19.87;;
6983;SDS011;3532;51.118;7.210;2023-11-18T03:02:43;40.00;;;21.03;;
6983;SDS011;3532;51.118;7.210;2023-11-18T03:05:08;37.53;;;20.77;;
6983;SDS011;3532;51.118;7.210;2023-11-18T03:07:45;31.40;;;18.47;;
6983;SDS011;3532;51.118;7.210;2023-11-18T03:10:14;31.83;;;18.20;;
6983;SDS011;3532;51.118;7.210;2023-11-18T03:12:53;31.67;;;17.33;;
6983;SDS011;3532;51.118;7.210;2023-11-18T03:15:18;32.53;;;18.50;;
6983;SDS011;3532;51.118;7.210;2023-11-18T03:17:48;29.83;;;16.87;;
6983;SDS011;3532;51.118;7.210;2023-11-18T03:20:15;25.57;;;16.30;;
6983;SDS011;3532;51.118;7.210;2023-11-18T03:22:48;29.15;;;17.30;;
6983;SDS011;3532;51.118;7.210;2023-11-18T03:25:15;28.75;;;17.15;;
6983;SDS011;3532;51.118;7.210;2023-11-18T03:27:41;26.17;;;17.20;;
6983;SDS011;3532;51.118;7.210;2023-11-18T03:30:06;28.30;;;16.43;;
6983;SDS011;3532;51.118;7.210;2023-11-18T03:32:35;24.85;;;15.20;;
6983;SDS011;3532;51.118;7.210;2023-11-18T03:35:02;23.80;;;14.85;;
6983;SDS011;3532;51.118;7.210;2023-11-18T03:37:29;30.27;;;16.40;;
6983;SDS011;3532;51.118;7.210;2023-11-18T03:39:54;27.20;;;16.80;;
6983;SDS011;3532;51.118;7.210;2023-11-18T03:42:20;27.70;;;15.70;;
6983;SDS011;3532;51.118;7.210;2023-11-18T03:44:46;22.00;;;14.47;;
6983;SDS011;3532;51.118;7.210;2023-11-18T03:47:12;22.90;;;14.67;;
6983;SDS011;3532;51.118;7.210;2023-11-18T03:49:39;29.38;;;15.18;;
6983;SDS011;3532;51.118;7.210;2023-11-18T03:52:04;26.40;;;16.00;;
6983;SDS011;3532;51.118;7.210;2023-11-18T03:54:30;29.13;;;15.83;;
6983;SDS011;3532;51.118;7.210;2023-11-18T03:56:56;28.23;;;15.80;;
6983;SDS011;3532;51.118;7.210;2023-11-18T03:59:21;25.77;;;14.80;;
6983;SDS011;3532;51.118;7.210;2023-11-18T04:01:46;28.37;;;16.53;;
6983;SDS011;3532;51.118;7.210;2023-11-18T04:04:14;31.03;;;14.73;;
6983;SDS011;3532;51.118;7.210;2023-11-18T04:06:39;27.30;;;15.43;;
6983;SDS011;3532;51.118;7.210;2023-11-18T04:09:04;26.23;;;15.53;;
6983;SDS011;3532;51.118;7.210;2023-11-18T04:11:30;32.87;;;16.60;;
6983;SDS011;3532;51.118;7.210;2023-11-18T04:13:56;26.70;;;15.57;;
6983;SDS011;3532;51.118;7.210;2023-11-18T04:16:21;25.47;;;15.57;;
6983;SDS011;3532;51.118;7.210;2023-11-18T04:18:46;32.17;;;16.53;;
6983;SDS011;3532;51.118;7.210;2023-11-18T04:21:12;29.80;;;17.50;;
6983;SDS011;3532;51.118;7.210;2023-11-18T04:23:38;27.20;;;16.20;;
6983;SDS011;3532;51.118;7.210;2023-11-18T04:26:06;30.03;;;16.57;;
6983;SDS011;3532;51.118;7.210;2023-11-18T04:28:32;31.80;;;16.50;;
6983;SDS011;3532;51.118;7.210;2023-11-18T04:30:58;28.17;;;16.20;;
6983;SDS011;3532;51.118;7.210;2023-11-18T04:33:23;29.97;;;15.87;;
6983;SDS011;3532;51.118;7.210;2023-11-18T04:35:50;37.23;;;17.67;;
6983;SDS011;3532;51.118;7.210;2023-11-18T04:38:16;34.13;;;17.13;;
6983;SDS011;3532;51.118;7.210;2023-11-18T04:40:41;31.63;;;17.83;;
6983;SDS011;3532;51.118;7.210;2023-11-18T04:43:09;35.60;;;17.17;;
6983;SDS011;3532;51.118;7.210;2023-11-18T04:45:35;37.47;;;19.53;;
6983;SDS011;3532;51.118;7.210;2023-11-18T04:48:01;37.07;;;18.27;;
6983;SDS011;3532;51.118;7.210;2023-11-18T04:50:28;42.23;;;19.70;;
6983;SDS011;3532;51.118;7.210;2023-11-18T04:52:55;29.55;;;18.40;;
6983;SDS011;3532;51.118;7.210;2023-11-18T04:55:20;36.63;;;19.43;;
6983;SDS011;3532;51.118;7.210;2023-11-18T04:57:45;38.83;;;19.20;;
6983;SDS011;3532;51.118;7.210;2023-11-18T05:00:11;36.23;;;20.77;;
6983;SDS011;3532;51.118;7.210;2023-11-18T05:02:37;40.07;;;19.33;;
6983;SDS011;3532;51.118;7.210;2023-11-18T05:05:03;34.13;;;19.33;;
6983;SDS011;3532;51.118;7.210;2023-11-18T05:07:31;36.53;;;18.23;;
6983;SDS011;3532;51.118;7.210;2023-11-18T05:09:56;41.57;;;20.27;;
6983;SDS011;3532;51.118;7.210;2023-11-18T05:12:21;46.47;;;21.03;;
6983;SDS011;3532;51.118;7.210;2023-11-18T05:14:47;40.67;;;21.70;;
6983;SDS011;3532;51.118;7.210;2023-11-18T05:17:14;40.17;;;21.37;;
6983;SDS011;3532;51.118;7.210;2023-11-18T05:19:43;39.57;;;20.47;;
6983;SDS011;3532;51.118;7.210;2023-11-18T05:22:08;37.00;;;20.10;;
6983;SDS011;3532;51.118;7.210;2023-11-18T05:24:34;41.33;;;20.70;;
6983;SDS011;3532;51.118;7.210;2023-11-18T05:26:59;43.37;;;21.57;;
6983;SDS011;3532;51.118;7.210;2023-11-18T05:29:27;37.00;;;21.63;;
6983;SDS011;3532;51.118;7.210;2023-11-18T05:31:53;35.40;;;20.20;;
6983;SDS011;3532;51.118;7.210;2023-11-18T05:34:19;34.90;;;20.23;;
6983;SDS011;3532;51.118;7.210;2023-11-18T05:36:45;38.63;;;19.93;;
6983;SDS011;3532;51.118;7.210;2023-11-18T05:39:11;38.03;;;20.83;;
6983;SDS011;3532;51.118;7.210;2023-11-18T05:41:36;36.40;;;20.33;;
6983;SDS011;3532;51.118;7.210;2023-11-18T05:44:04;33.57;;;18.57;;
6983;SDS011;3532;51.118;7.210;2023-11-18T05:46:31;29.30;;;19.13;;
6983;SDS011;3532;51.118;7.210;2023-11-18T05:48:57;34.43;;;20.10;;
6983;SDS011;3532;51.118;7.210;2023-11-18T05:51:27;34.60;;;19.50;;
6983;SDS011;3532;51.118;7.210;2023-11-18T05:53:54;28.67;;;18.77;;
6983;SDS011;3532;51.118;7.210;2023-11-18T05:56:20;28.57;;;18.63;;
6983;SDS011;3532;51.118;7.210;2023-11-18T05:58:49;30.60;;;17.20;;
6983;SDS011;3532;51.118;7.210;2023-11-18T06:01:15;34.17;;;19.23;;
6983;SDS011;3532;51.118;7.210;2023-11-18T06:03:42;30.87;;;19.80;;
6983;SDS011;3532;51.118;7.210;2023-11-18T06:06:08;32.27;;;20.37;;
6983;SDS011;3532;51.118;7.210;2023-11-18T06:08:35;29.17;;;18.77;;
6983;SDS011;3532;51.118;7.210;2023-11-18T06:11:00;28.93;;;18.90;;
6983;SDS011;3532;51.118;7.210;2023-11-18T06:13:37;33.77;;;19.43;;
6983;SDS011;3532;51.118;7.210;2023-11-18T06:16:07;32.83;;;19.23;;
6983;SDS011;3532;51.118;7.210;2023-11-18T06:18:39;29.87;;;18.73;;
6983;SDS011;3532;51.118;7.210;2023-11-18T06:21:05;39.63;;;20.97;;
6983;SDS011;3532;51.118;7.210;2023-11-18T06:23:31;32.77;;;19.67;;
6983;SDS011;3532;51.118;7.210;2023-11-18T06:25:57;32.63;;;19.83;;
6983;SDS011;3532;51.118;7.210;2023-11-18T06:28:25;34.03;;;20.80;;
6983;SDS011;3532;51.118;7.210;2023-11-18T06:30:51;32.80;;;19.53;;
6983;SDS011;3532;51.118;7.210;2023-11-18T06:33:16;27.70;;;19.00;;
6983;SDS011;3532;51.118;7.210;2023-11-18T06:35:42;31.93;;;19.60;;
6983;SDS011;3532;51.118;7.210;2023-11-18T06:38:09;27.43;;;18.57;;
6983;SDS011;3532;51.118;7.210;2023-11-18T06:40:37;32.53;;;19.83;;
6983;SDS011;3532;51.118;7.210;2023-11-18T06:43:03;39.13;;;21.43;;
6983;SDS011;3532;51.118;7.210;2023-11-18T06:45:30;32.73;;;20.07;;
6983;SDS011;3532;51.118;7.210;2023-11-18T06:47:57;32.20;;;19.40;;
6983;SDS011;3532;51.118;7.210;2023-11-18T06:50:23;32.87;;;19.30;;
6983;SDS011;3532;51.118;7.210;2023-11-18T06:52:49;30.63;;;20.60;;
6983;SDS011;3532;51.118;7.210;2023-11-18T06:55:16;28.17;;;19.03;;
6983;SDS011;3532;51.118;7.210;2023-11-18T06:57:41;33.53;;;20.13;;
6983;SDS011;3532;51.118;7.210;2023-11-18T07:00:08;32.43;;;19.37;;
6983;SDS011;3532;51.118;7.210;2023-11-18T07:02:34;34.97;;;21.03;;
6983;SDS011;3532;51.118;7.210;2023-11-18T07:04:59;30.77;;;21.10;;
6983;SDS011;3532;51.118;7.210;2023-11-18T07:07:24;32.37;;;19.87;;
6983;SDS011;3532;51.118;7.210;2023-11-18T07:09:50;28.87;;;19.40;;
6983;SDS011;3532;51.118;7.210;2023-11-18T07:12:17;26.07;;;18.17;;
6983;SDS011;3532;51.118;7.210;2023-11-18T07:14:44;26.67;;;18.10;;
6983;SDS011;3532;51.118;7.210;2023-11-18T07:17:09;27.37;;;19.83;;
6983;SDS011;3532;51.118;7.210;2023-11-18T07:19:35;28.27;;;19.07;;
6983;SDS011;3532;51.118;7.210;2023-11-18T07:22:00;28.03;;;18.93;;
6983;SDS011;3532;51.118;7.210;2023-11-18T07:24:27;28.53;;;19.73;;
6983;SDS011;3532;51.118;7.210;2023-11-18T07:26:55;26.00;;;18.40;;
6983;SDS011;3532;51.118;7.210;2023-11-18T07:29:20;30.23;;;20.03;;
6983;SDS011;3532;51.118;7.210;2023-11-18T07:31:45;28.77;;;18.87;;
6983;SDS011;3532;51.118;7.210;2023-11-18T07:34:11;34.57;;;18.80;;
6983;SDS011;3532;51.118;7.210;2023-11-18T07:36:36;30.37;;;18.87;;
6983;SDS011;3532;51.118;7.210;2023-11-18T07:39:01;24.67;;;17.63;;
6983;SDS011;3532;51.118;7.210;2023-11-18T07:41:28;28.30;;;19.57;;
6983;SDS011;3532;51.118;7.210;2023-11-18T07:43:53;31.27;;;19.97;;
6983;SDS011;3532;51.118;7.210;2023-11-18T07:46:24;31.10;;;20.60;;
6983;SDS011;3532;51.118;7.210;2023-11-18T07:48:50;29.33;;;19.13;;
6983;SDS011;3532;51.118;7.210;2023-11-18T07:51:16;29.23;;;19.03;;
6983;SDS011;3532;51.118;7.210;2023-11-18T07:53:42;29.63;;;19.87;;
6983;SDS011;3532;51.118;7.210;2023-11-18T07:56:07;27.40;;;18.37;;
6983;SDS011;3532;51.118;7.210;2023-11-18T07:58:36;28.03;;;18.90;;
6983;SDS011;3532;51.118;7.210;2023-11-18T08:01:02;29.60;;;20.27;;
6983;SDS011;3532;51.118;7.210;2023-11-18T08:03:29;24.73;;;17.70;;
6983;SDS011;3532;51.118;7.210;2023-11-18T08:05:56;28.77;;;18.67;;
6983;SDS011;3532;51.118;7.210;2023-11-18T08:08:22;27.77;;;18.10;;
6983;SDS011;3532;51.118;7.210;2023-11-18T08:10:48;26.93;;;19.17;;
6983;SDS011;3532;51.118;7.210;2023-11-18T08:13:13;33.67;;;20.57;;
6983;SDS011;3532;51.118;7.210;2023-11-18T08:15:39;26.33;;;17.57;;
6983;SDS011;3532;51.118;7.210;2023-11-18T08:18:05;32.17;;;17.27;;
6983;SDS011;3532;51.118;7.210;2023-11-18T08:20:31;25.50;;;17.70;;
6983;SDS011;3532;51.118;7.210;2023-11-18T08:22:56;28.87;;;17.47;;
6983;SDS011;3532;51.118;7.210;2023-11-18T08:25:22;25.63;;;17.27;;
6983;SDS011;3532;51.118;7.210;2023-11-18T08:27:47;27.40;;;17.60;;
6983;SDS011;3532;51.118;7.210;2023-11-18T08:30:13;28.70;;;18.93;;
6983;SDS011;3532;51.118;7.210;2023-11-18T08:32:39;29.47;;;18.37;;
6983;SDS011;3532;51.118;7.210;2023-11-18T08:35:05;26.00;;;16.07;;
6983;SDS011;3532;51.118;7.210;2023-11-18T08:37:34;28.10;;;18.73;;
6983;SDS011;3532;51.118;7.210;2023-11-18T08:40:02;27.17;;;16.40;;
6983;SDS011;3532;51.118;7.210;2023-11-18T08:42:28;24.23;;;15.87;;
6983;SDS011;3532;51.118;7.210;2023-11-18T08:44:54;28.27;;;17.63;;
6983;SDS011;3532;51.118;7.210;2023-11-18T08:47:20;23.63;;;16.57;;
6983;SDS011;3532;51.118;7.210;2023-11-18T08:49:46;26.30;;;15.17;;
6983;SDS011;3532;51.118;7.210;2023-11-18T08:52:11;23.50;;;17.13;;
6983;SDS011;3532;51.118;7.210;2023-11-18T08:54:37;23.97;;;16.37;;
6983;SDS011;3532;51.118;7.210;2023-11-18T08:57:07;24.87;;;16.77;;
6983;SDS011;3532;51.118;7.210;2023-11-18T08:59:49;23.10;;;16.57;;
6983;SDS011;3532;51.118;7.210;2023-11-18T09:02:17;25.03;;;15.67;;
6983;SDS011;3532;51.118;7.210;2023-11-18T09:04:42;21.13;;;15.13;;
6983;SDS011;3532;51.118;7.210;2023-11-18T09:07:08;23.67;;;15.73;;
6983;SDS011;3532;51.118;7.210;2023-11-18T09:09:35;24.57;;;15.90;;
6983;SDS011;3532;51.118;7.210;2023-11-18T09:12:00;26.63;;;16.37;;
6983;SDS011;3532;51.118;7.210;2023-11-18T09:14:27;23.37;;;14.83;;
6983;SDS011;3532;51.118;7.210;2023-11-18T09:16:53;22.60;;;15.37;;
6983;SDS011;3532;51.118;7.210;2023-11-18T09:19:24;21.87;;;15.37;;
6983;SDS011;3532;51.118;7.210;2023-11-18T09:21:49;19.30;;;14.13;;
6983;SDS011;3532;51.118;7.210;2023-11-18T09:24:16;25.40;;;16.37;;
6983;SDS011;3532;51.118;7.210;2023-11-18T09:26:44;23.67;;;16.37;;
6983;SDS011;3532;51.118;7.210;2023-11-18T09:29:12;19.53;;;15.07;;
6983;SDS011;3532;51.118;7.210;2023-11-18T09:31:43;21.23;;;15.50;;
6983;SDS011;3532;51.118;7.210;2023-11-18T09:34:15;24.90;;;15.60;;
6983;SDS011;3532;51.118;7.210;2023-11-18T09:36:43;22.97;;;15.93;;
6983;SDS011;3532;51.118;7.210;2023-11-18T09:39:09;21.80;;;14.27;;
6983;SDS011;3532;51.118;7.210;2023-11-18T09:41:49;26.47;;;17.43;;
6983;SDS011;3532;51.118;7.210;2023-11-18T09:44:14;24.63;;;14.77;;
6983;SDS011;3532;51.118;7.210;2023-11-18T09:46:41;29.53;;;17.73;;
6983;SDS011;3532;51.118;7.210;2023-11-18T09:51:50;25.37;;;15.43;;
6983;SDS011;3532;51.118;7.210;2023-11-18T09:54:27;25.50;;;16.80;;
6983;SDS011;3532;51.118;7.210;2023-11-18T09:57:08;19.03;;;14.37;;
6983;SDS011;3532;51.118;7.210;2023-11-18T09:59:54;25.83;;;17.17;;
6983;SDS011;3532;51.118;7.210;2023-11-18T10:02:35;22.37;;;15.23;;
6983;SDS011;3532;51.118;7.210;2023-11-18T10:05:04;21.20;;;15.47;;
6983;SDS011;3532;51.118;7.210;2023-11-18T10:07:37;21.60;;;15.53;;
6983;SDS011;3532;51.118;7.210;2023-11-18T10:10:04;26.43;;;16.27;;
6983;SDS011;3532;51.118;7.210;2023-11-18T10:12:30;22.57;;;14.80;;
6983;SDS011;3532;51.118;7.210;2023-11-18T10:14:55;22.13;;;15.03;;
6983;SDS011;3532;51.118;7.210;2023-11-18T10:17:21;22.73;;;16.10;;
6983;SDS011;3532;51.118;7.210;2023-11-18T10:19:54;28.63;;;16.73;;
6983;SDS011;3532;51.118;7.210;2023-11-18T10:22:25;18.90;;;14.07;;
6983;SDS011;3532;51.118;7.210;2023-11-18T10:24:52;20.33;;;14.37;;
6983;SDS011;3532;51.118;7.210;2023-11-18T10:27:24;21.30;;;14.47;;
6983;SDS011;3532;51.118;7.210;2023-11-18T10:29:51;21.90;;;14.80;;
6983;SDS011;3532;51.118;7.210;2023-11-18T10:32:20;18.27;;;13.97;;
6983;SDS011;3532;51.118;7.210;2023-11-18T10:34:47;22.00;;;14.17;;
6983;SDS011;3532;51.118;7.210;2023-11-18T10:37:14;19.83;;;14.60;;
6983;SDS011;3532;51.118;7.210;2023-11-18T10:39:41;20.30;;;13.57;;
6983;SDS011;3532;51.118;7.210;2023-11-18T10:42:11;19.00;;;13.43;;
6983;SDS011;3532;51.118;7.210;2023-11-18T10:44:37;22.07;;;14.13;;
6983;SDS011;3532;51.118;7.210;2023-11-18T10:47:02;20.20;;;14.47;;
6983;SDS011;3532;51.118;7.210;2023-11-18T10:49:28;21.97;;;13.73;;
6983;SDS011;3532;51.118;7.210;2023-11-18T10:51:55;21.70;;;13.30;;
6983;SDS011;3532;51.118;7.210;2023-11-18T10:54:21;23.80;;;15.07;;
6983;SDS011;3532;51.118;7.210;2023-11-18T10:56:47;18.33;;;13.13;;
6983;SDS011;3532;51.118;7.210;2023-11-18T10:59:13;21.53;;;13.20;;
6983;SDS011;3532;51.118;7.210;2023-11-18T11:01:41;17.27;;;12.10;;
6983;SDS011;3532;51.118;7.210;2023-11-18T11:04:13;18.23;;;13.00;;
6983;SDS011;3532;51.118;7.210;2023-11-18T11:06:45;21.07;;;11.97;;
6983;SDS011;3532;51.118;7.210;2023-11-18T11:09:17;15.63;;;12.63;;
6983;SDS011;3532;51.118;7.210;2023-11-18T11:14:22;15.73;;;11.90;;
6983;SDS011;3532;51.118;7.210;2023-11-18T11:17:00;14.77;;;11.57;;
6983;SDS011;3532;51.118;7.210;2023-11-18T11:19:38;16.33;;;11.00;;
6983;SDS011;3532;51.118;7.210;2023-11-18T11:22:13;15.17;;;10.63;;
6983;SDS011;3532;51.118;7.210;2023-11-18T11:27:55;14.93;;;10.33;;
6983;SDS011;3532;51.118;7.210;2023-11-18T11:30:30;16.93;;;9.93;;
6983;SDS011;3532;51.118;7.210;2023-11-18T11:35:56;10.53;;;9.47;;
6983;SDS011;3532;51.118;7.210;2023-11-18T11:38:24;10.70;;;9.07;;
6983;SDS011;3532;51.118;7.210;2023-11-18T11:40:51;13.47;;;9.17;;
6983;SDS011;3532;51.118;7.210;2023-11-18T11:43:19;14.50;;;9.20;;
6983;SDS011;3532;51.118;7.210;2023-11-18T11:45:53;12.23;;;9.40;;
6983;SDS011;3532;51.118;7.210;2023-11-18T11:48:20;11.80;;;9.37;;
6983;SDS011;3532;51.118;7.210;2023-11-18T11:53:47;10.07;;;7.90;;
6983;SDS011;3532;51.118;7.210;2023-11-18T11:56:17;10.67;;;9.13;;
6983;SDS011;3532;51.118;7.210;2023-11-18T11:58:46;10.33;;;8.57;;
6983;SDS011;3532;51.118;7.210;2023-11-18T12:01:26;12.93;;;8.60;;
6983;SDS011;3532;51.118;7.210;2023-11-18T12:03:58;10.13;;;8.60;;
6983;SDS011;3532;51.118;7.210;2023-11-18T12:06:31;15.00;;;10.63;;
6983;SDS011;3532;51.118;7.210;2023-11-18T12:08:57;10.53;;;9.43;;
6983;SDS011;3532;51.118;7.210;2023-11-18T12:11:23;10.63;;;9.20;;
6983;SDS011;3532;51.118;7.210;2023-11-18T12:14:04;11.40;;;9.27;;
6983;SDS011;3532;51.118;7.210;2023-11-18T12:17:00;15.53;;;9.87;;
6983;SDS011;3532;51.118;7.210;2023-11-18T12:19:37;12.70;;;9.93;;
6983;SDS011;3532;51.118;7.210;2023-11-18T12:22:13;11.63;;;9.90;;
6983;SDS011;3532;51.118;7.210;2023-11-18T12:30:04;11.13;;;8.77;;
6983;SDS011;3532;51.118;7.210;2023-11-18T12:33:00;14.13;;;10.80;;
6983;SDS011;3532;51.118;7.210;2023-11-18T12:38:30;12.33;;;9.63;;
6983;SDS011;3532;51.118;7.210;2023-11-18T12:46:50;14.43;;;10.27;;
6983;SDS011;3532;51.118;7.210;2023-11-18T12:49:18;18.27;;;10.87;;
6983;SDS011;3532;51.118;7.210;2023-11-18T12:51:48;18.87;;;11.73;;
6983;SDS011;3532;51.118;7.210;2023-11-18T12:54:14;13.30;;;11.23;;
6983;SDS011;3532;51.118;7.210;2023-11-18T12:56:41;18.10;;;11.93;;
6983;SDS011;3532;51.118;7.210;2023-11-18T12:59:13;15.07;;;11.30;;
6983;SDS011;3532;51.118;7.210;2023-11-18T13:01:42;15.67;;;11.27;;
6983;SDS011;3532;51.118;7.210;2023-11-18T13:04:08;15.70;;;11.87;;
6983;SDS011;3532;51.118;7.210;2023-11-18T13:06:34;16.00;;;11.57;;
6983;SDS011;3532;51.118;7.210;2023-11-18T13:08:59;16.47;;;10.80;;
6983;SDS011;3532;51.118;7.210;2023-11-18T13:11:30;17.20;;;11.77;;
6983;SDS011;3532;51.118;7.210;2023-11-18T13:13:56;19.67;;;11.57;;
6983;SDS011;3532;51.118;7.210;2023-11-18T13:16:21;19.80;;;11.23;;
6983;SDS011;3532;51.118;7.210;2023-11-18T13:18:47;17.77;;;12.23;;
6983;SDS011;3532;51.118;7.210;2023-11-18T13:21:17;18.03;;;11.47;;
6983;SDS011;3532;51.118;7.210;2023-11-18T13:23:47;17.23;;;10.87;;
6983;SDS011;3532;51.118;7.210;2023-11-18T13:26:13;15.00;;;10.30;;
6983;SDS011;3532;51.118;7.210;2023-11-18T13:28:39;14.90;;;10.47;;
6983;SDS011;3532;51.118;7.210;2023-11-18T13:31:06;15.37;;;10.43;;
6983;SDS011;3532;51.118;7.210;2023-11-18T13:33:36;17.17;;;10.27;;
6983;SDS011;3532;51.118;7.210;2023-11-18T13:36:02;14.47;;;11.00;;
6983;SDS011;3532;51.118;7.210;2023-11-18T13:38:30;16.83;;;11.10;;
6983;SDS011;3532;51.118;7.210;2023-11-18T13:40:55;19.37;;;11.30;;
6983;SDS011;3532;51.118;7.210;2023-11-18T13:43:21;17.33;;;12.23;;
6983;SDS011;3532;51.118;7.210;2023-11-18T13:45:51;19.30;;;11.87;;
6983;SDS011;3532;51.118;7.210;2023-11-18T13:48:17;18.77;;;12.77;;
6983;SDS011;3532;51.118;7.210;2023-11-18T13:50:43;16.67;;;11.00;;
6983;SDS011;3532;51.118;7.210;2023-11-18T13:53:09;13.80;;;10.43;;
6983;SDS011;3532;51.118;7.210;2023-11-18T13:55:35;14.33;;;9.57;;
6983;SDS011;3532;51.118;7.210;2023-11-18T13:58:03;14.70;;;9.30;;
6983;SDS011;3532;51.118;7.210;2023-11-18T14:00:30;12.53;;;9.87;;
6983;SDS011;3532;51.118;7.210;2023-11-18T14:02:55;17.13;;;10.67;;
6983;SDS011;3532;51.118;7.210;2023-11-18T14:05:21;12.13;;;9.53;;
6983;SDS011;3532;51.118;7.210;2023-11-18T14:07:49;14.77;;;8.90;;
6983;SDS011;3532;51.118;7.210;2023-11-18T14:10:15;13.83;;;8.87;;
6983;SDS011;3532;51.118;7.210;2023-11-18T14:13:02;11.07;;;8.37;;
6983;SDS011;3532;51.118;7.210;2023-11-18T14:15:28;13.07;;;8.77;;
6983;SDS011;3532;51.118;7.210;2023-11-18T14:17:54;12.73;;;8.43;;
6983;SDS011;3532;51.118;7.210;2023-11-18T14:20:20;11.23;;;8.57;;
6983;SDS011;3532;51.118;7.210;2023-11-18T14:22:47;9.10;;;7.20;;
6983;SDS011;3532;51.118;7.210;2023-11-18T14:25:13;12.07;;;7.63;;
6983;SDS011;3532;51.118;7.210;2023-11-18T14:27:38;13.07;;;7.47;;
6983;SDS011;3532;51.118;7.210;2023-11-18T14:30:04;11.90;;;7.83;;
6983;SDS011;3532;51.118;7.210;2023-11-18T14:32:33;10.53;;;8.13;;
6983;SDS011;3532;51.118;7.210;2023-11-18T14:34:59;9.47;;;7.47;;
6983;SDS011;3532;51.118;7.210;2023-11-18T14:37:24;9.67;;;6.57;;
6983;SDS011;3532;51.118;7.210;2023-11-18T14:39:50;8.73;;;6.93;;
6983;SDS011;3532;51.118;7.210;2023-11-18T14:42:15;12.30;;;7.60;;
6983;SDS011;3532;51.118;7.210;2023-11-18T14:44:41;8.93;;;7.53;;
6983;SDS011;3532;51.118;7.210;2023-11-18T14:47:06;9.33;;;6.20;;
6983;SDS011;3532;51.118;7.210;2023-11-18T14:49:32;11.37;;;6.60;;
6983;SDS011;3532;51.118;7.210;2023-11-18T14:51:57;9.77;;;6.60;;
6983;SDS011;3532;51.118;7.210;2023-11-18T14:54:22;14.00;;;7.00;;
6983;SDS011;3532;51.118;7.210;2023-11-18T14:56:48;10.70;;;6.70;;
6983;SDS011;3532;51.118;7.210;2023-11-18T14:59:14;11.50;;;7.07;;
6983;SDS011;3532;51.118;7.210;2023-11-18T15:01:39;9.53;;;6.53;;
6983;SDS011;3532;51.118;7.210;2023-11-18T15:04:09;9.80;;;6.63;;
6983;SDS011;3532;51.118;7.210;2023-11-18T15:06:34;12.00;;;7.57;;
6983;SDS011;3532;51.118;7.210;2023-11-18T15:08:59;10.83;;;8.40;;
6983;SDS011;3532;51.118;7.210;2023-11-18T15:11:28;10.73;;;7.33;;
6983;SDS011;3532;51.118;7.210;2023-11-18T15:13:53;10.77;;;6.67;;
6983;SDS011;3532;51.118;7.210;2023-11-18T15:16:19;11.10;;;7.03;;
6983;SDS011;3532;51.118;7.210;2023-11-18T15:18:44;8.73;;;6.20;;
6983;SDS011;3532;51.118;7.210;2023-11-18T15:21:14;6.77;;;6.13;;